sensor_id;sensor_type;location;lat;lon;timestamp;temperature;humidity
4820;DHT22;2424;49.696;6.630;2023-04-01T00:03:52;9.40;99.90
4820;DHT22;2424;49.696;6.630;2023-04-01T00:09:14;9.30;99.90
4820;DHT22;2424;49.696;6.630;2023-04-01T00:14:36;9.20;99.90
4820;DHT22;2424;49.696;6.630;2023-04-01T00:20:02;9.20;99.90
4820;DHT22;2424;49.696;6.630;2023-04-01T00:25:24;9.20;99.90
4820;DHT22;2424;49.696;6.630;2023-04-01T00:30:47;9.10;99.90
4820;DHT22;2424;49.696;6.630;2023-04-01T00:36:12;9.10;99.90
4820;DHT22;2424;49.696;6.630;2023-04-01T00:41:34;9.10;99.90
4820;DHT22;2424;49.696;6.630;2023-04-01T00:46:56;9.10;99.90
4820;DHT22;2424;49.696;6.630;2023-04-01T00:52:23;9.10;99.90
4820;DHT22;2424;49.696;6.630;2023-04-01T00:57:46;9.10;99.90
4820;DHT22;2424;49.696;6.630;2023-04-01T01:03:10;9.10;99.90
4820;DHT22;2424;49.696;6.630;2023-04-01T01:08:45;9.10;99.90
4820;DHT22;2424;49.696;6.630;2023-04-01T01:14:25;9.10;99.90
4820;DHT22;2424;49.696;6.630;2023-04-01T01:20:21;9.10;99.90
4820;DHT22;2424;49.696;6.630;2023-04-01T01:25:54;9.10;99.90
4820;DHT22;2424;49.696;6.630;2023-04-01T01:31:25;9.10;99.90
4820;DHT22;2424;49.696;6.630;2023-04-01T01:36:56;9.20;99.90
4820;DHT22;2424;49.696;6.630;2023-04-01T01:42:20;9.10;99.90
4820;DHT22;2424;49.696;6.630;2023-04-01T01:47:45;9.10;99.90
4820;DHT22;2424;49.696;6.630;2023-04-01T01:53:11;9.10;99.90
4820;DHT22;2424;49.696;6.630;2023-04-01T01:58:35;9.20;99.90
4820;DHT22;2424;49.696;6.630;2023-04-01T02:04:02;9.10;99.90
4820;DHT22;2424;49.696;6.630;2023-04-01T02:09:26;9.10;99.90
4820;DHT22;2424;49.696;6.630;2023-04-01T02:14:52;9.10;99.90
4820;DHT22;2424;49.696;6.630;2023-04-01T02:20:17;9.00;99.90
4820;DHT22;2424;49.696;6.630;2023-04-01T02:25:42;9.00;99.90
4820;DHT22;2424;49.696;6.630;2023-04-01T02:31:05;8.80;99.90
4820;DHT22;2424;49.696;6.630;2023-04-01T02:36:28;8.80;99.90
4820;DHT22;2424;49.696;6.630;2023-04-01T02:41:52;8.70;99.90
4820;DHT22;2424;49.696;6.630;2023-04-01T02:47:14;8.60;99.90
4820;DHT22;2424;49.696;6.630;2023-04-01T02:52:36;8.60;99.90
4820;DHT22;2424;49.696;6.630;2023-04-01T02:58:00;8.60;99.90
4820;DHT22;2424;49.696;6.630;2023-04-01T03:03:22;8.60;99.90
4820;DHT22;2424;49.696;6.630;2023-04-01T03:08:44;8.60;99.90
4820;DHT22;2424;49.696;6.630;2023-04-01T03:14:07;8.60;99.90
4820;DHT22;2424;49.696;6.630;2023-04-01T03:19:29;8.50;99.90
4820;DHT22;2424;49.696;6.630;2023-04-01T03:24:52;8.50;99.90
4820;DHT22;2424;49.696;6.630;2023-04-01T03:30:15;8.50;99.90
4820;DHT22;2424;49.696;6.630;2023-04-01T03:35:37;8.50;99.90
4820;DHT22;2424;49.696;6.630;2023-04-01T03:41:00;8.50;99.90
4820;DHT22;2424;49.696;6.630;2023-04-01T03:46:24;8.50;99.90
4820;DHT22;2424;49.696;6.630;2023-04-01T03:51:46;8.50;99.90
4820;DHT22;2424;49.696;6.630;2023-04-01T03:57:08;8.50;99.90
4820;DHT22;2424;49.696;6.630;2023-04-01T04:02:31;8.40;99.90
4820;DHT22;2424;49.696;6.630;2023-04-01T04:07:53;8.40;99.90
4820;DHT22;2424;49.696;6.630;2023-04-01T04:13:16;8.30;99.90
4820;DHT22;2424;49.696;6.630;2023-04-01T04:18:39;8.30;99.90
4820;DHT22;2424;49.696;6.630;2023-04-01T04:24:02;8.30;99.90
4820;DHT22;2424;49.696;6.630;2023-04-01T04:29:24;8.30;99.90
4820;DHT22;2424;49.696;6.630;2023-04-01T04:34:48;8.30;99.90
4820;DHT22;2424;49.696;6.630;2023-04-01T04:40:10;8.20;99.90
4820;DHT22;2424;49.696;6.630;2023-04-01T04:45:33;8.30;99.90
4820;DHT22;2424;49.696;6.630;2023-04-01T04:50:56;8.20;99.90
4820;DHT22;2424;49.696;6.630;2023-04-01T04:56:19;8.20;99.90
4820;DHT22;2424;49.696;6.630;2023-04-01T05:01:41;8.20;99.90
4820;DHT22;2424;49.696;6.630;2023-04-01T05:07:04;8.20;99.90
4820;DHT22;2424;49.696;6.630;2023-04-01T05:12:26;8.20;99.90
4820;DHT22;2424;49.696;6.630;2023-04-01T05:17:48;8.20;99.90
4820;DHT22;2424;49.696;6.630;2023-04-01T05:23:11;8.20;99.90
4820;DHT22;2424;49.696;6.630;2023-04-01T05:28:33;8.20;99.90
4820;DHT22;2424;49.696;6.630;2023-04-01T05:33:55;8.20;99.90
4820;DHT22;2424;49.696;6.630;2023-04-01T05:39:19;8.20;99.90
4820;DHT22;2424;49.696;6.630;2023-04-01T05:44:40;8.20;99.90
4820;DHT22;2424;49.696;6.630;2023-04-01T05:50:03;8.20;99.90
4820;DHT22;2424;49.696;6.630;2023-04-01T05:55:26;8.20;99.90
4820;DHT22;2424;49.696;6.630;2023-04-01T06:00:48;8.20;99.90
4820;DHT22;2424;49.696;6.630;2023-04-01T06:06:14;8.30;99.90
4820;DHT22;2424;49.696;6.630;2023-04-01T06:11:42;8.30;99.90
4820;DHT22;2424;49.696;6.630;2023-04-01T06:17:18;8.30;99.90
4820;DHT22;2424;49.696;6.630;2023-04-01T06:23:01;8.20;99.90
4820;DHT22;2424;49.696;6.630;2023-04-01T06:34:32;8.30;99.90
4820;DHT22;2424;49.696;6.630;2023-04-01T06:40:17;8.30;99.90
4820;DHT22;2424;49.696;6.630;2023-04-01T06:45:47;8.30;99.90
4820;DHT22;2424;49.696;6.630;2023-04-01T06:51:21;8.40;99.90
4820;DHT22;2424;49.696;6.630;2023-04-01T06:56:48;8.40;99.90
4820;DHT22;2424;49.696;6.630;2023-04-01T07:02:22;8.50;99.90
4820;DHT22;2424;49.696;6.630;2023-04-01T07:07:49;8.50;99.90
4820;DHT22;2424;49.696;6.630;2023-04-01T07:13:17;8.50;99.90
4820;DHT22;2424;49.696;6.630;2023-04-01T07:18:45;8.50;99.90
4820;DHT22;2424;49.696;6.630;2023-04-01T07:24:15;8.60;99.90
4820;DHT22;2424;49.696;6.630;2023-04-01T07:29:38;8.60;99.90
4820;DHT22;2424;49.696;6.630;2023-04-01T07:35:10;8.70;99.90
4820;DHT22;2424;49.696;6.630;2023-04-01T07:40:41;8.80;99.90
4820;DHT22;2424;49.696;6.630;2023-04-01T07:46:11;8.80;99.90
4820;DHT22;2424;49.696;6.630;2023-04-01T07:51:43;8.80;99.90
4820;DHT22;2424;49.696;6.630;2023-04-01T07:57:14;8.90;99.90
4820;DHT22;2424;49.696;6.630;2023-04-01T08:02:48;8.90;99.90
4820;DHT22;2424;49.696;6.630;2023-04-01T08:08:19;9.00;99.90
4820;DHT22;2424;49.696;6.630;2023-04-01T08:13:48;9.00;99.90
4820;DHT22;2424;49.696;6.630;2023-04-01T08:19:21;9.00;99.90
4820;DHT22;2424;49.696;6.630;2023-04-01T08:24:51;9.00;99.90
4820;DHT22;2424;49.696;6.630;2023-04-01T08:30:18;9.00;99.90
4820;DHT22;2424;49.696;6.630;2023-04-01T08:35:45;9.00;99.90
4820;DHT22;2424;49.696;6.630;2023-04-01T08:41:22;9.10;99.90
4820;DHT22;2424;49.696;6.630;2023-04-01T08:47:20;9.20;99.90
4820;DHT22;2424;49.696;6.630;2023-04-01T08:52:51;9.30;99.90
4820;DHT22;2424;49.696;6.630;2023-04-01T08:58:32;9.30;99.90
4820;DHT22;2424;49.696;6.630;2023-04-01T09:04:17;9.30;99.90
4820;DHT22;2424;49.696;6.630;2023-04-01T09:27:43;9.30;99.90
4820;DHT22;2424;49.696;6.630;2023-04-01T09:33:24;9.30;99.90
4820;DHT22;2424;49.696;6.630;2023-04-01T09:38:58;9.40;99.90
4820;DHT22;2424;49.696;6.630;2023-04-01T09:44:25;9.50;99.90
4820;DHT22;2424;49.696;6.630;2023-04-01T09:50:12;9.50;99.90
4820;DHT22;2424;49.696;6.630;2023-04-01T10:01:56;9.70;99.90
4820;DHT22;2424;49.696;6.630;2023-04-01T10:13:39;9.80;99.90
4820;DHT22;2424;49.696;6.630;2023-04-01T10:25:27;9.80;99.90
4820;DHT22;2424;49.696;6.630;2023-04-01T10:31:13;9.70;99.90
4820;DHT22;2424;49.696;6.630;2023-04-01T10:36:52;9.70;99.90
4820;DHT22;2424;49.696;6.630;2023-04-01T10:42:38;9.60;99.90
4820;DHT22;2424;49.696;6.630;2023-04-01T10:48:23;9.60;99.90
4820;DHT22;2424;49.696;6.630;2023-04-01T10:54:17;9.70;99.90
4820;DHT22;2424;49.696;6.630;2023-04-01T11:00:24;9.90;99.90
4820;DHT22;2424;49.696;6.630;2023-04-01T11:18:49;10.30;99.90
4820;DHT22;2424;49.696;6.630;2023-04-01T11:24:26;10.50;99.90
4820;DHT22;2424;49.696;6.630;2023-04-01T11:30:17;10.50;99.90
4820;DHT22;2424;49.696;6.630;2023-04-01T11:36:18;10.60;99.90
4820;DHT22;2424;49.696;6.630;2023-04-01T11:41:48;10.40;99.90
4820;DHT22;2424;49.696;6.630;2023-04-01T11:47:22;10.30;99.90
4820;DHT22;2424;49.696;6.630;2023-04-01T11:59:02;10.30;99.90
4820;DHT22;2424;49.696;6.630;2023-04-01T12:04:47;10.30;99.90
4820;DHT22;2424;49.696;6.630;2023-04-01T12:10:18;10.30;99.90
4820;DHT22;2424;49.696;6.630;2023-04-01T12:15:54;10.40;99.90
4820;DHT22;2424;49.696;6.630;2023-04-01T12:21:25;10.40;99.90
4820;DHT22;2424;49.696;6.630;2023-04-01T12:26:59;10.40;99.90
4820;DHT22;2424;49.696;6.630;2023-04-01T12:32:31;10.30;99.90
4820;DHT22;2424;49.696;6.630;2023-04-01T12:38:08;10.30;99.90
4820;DHT22;2424;49.696;6.630;2023-04-01T12:50:02;10.40;99.90
4820;DHT22;2424;49.696;6.630;2023-04-01T12:55:37;10.70;99.90
4820;DHT22;2424;49.696;6.630;2023-04-01T13:01:20;10.70;99.90
4820;DHT22;2424;49.696;6.630;2023-04-01T13:06:58;10.80;99.90
4820;DHT22;2424;49.696;6.630;2023-04-01T13:12:36;10.90;99.90
4820;DHT22;2424;49.696;6.630;2023-04-01T13:18:15;11.00;99.90
4820;DHT22;2424;49.696;6.630;2023-04-01T13:23:49;10.90;99.90
4820;DHT22;2424;49.696;6.630;2023-04-01T13:29:15;10.80;99.90
4820;DHT22;2424;49.696;6.630;2023-04-01T13:34:53;10.80;99.90
4820;DHT22;2424;49.696;6.630;2023-04-01T13:40:32;10.70;99.90
4820;DHT22;2424;49.696;6.630;2023-04-01T13:52:08;10.40;99.90
4820;DHT22;2424;49.696;6.630;2023-04-01T13:57:48;10.50;99.90
4820;DHT22;2424;49.696;6.630;2023-04-01T14:03:42;10.40;99.90
4820;DHT22;2424;49.696;6.630;2023-04-01T14:09:25;10.50;99.90
4820;DHT22;2424;49.696;6.630;2023-04-01T14:15:05;10.40;99.90
4820;DHT22;2424;49.696;6.630;2023-04-01T14:20:37;10.30;99.90
4820;DHT22;2424;49.696;6.630;2023-04-01T14:32:04;10.20;99.90
4820;DHT22;2424;49.696;6.630;2023-04-01T14:37:46;10.20;99.90
4820;DHT22;2424;49.696;6.630;2023-04-01T14:43:40;10.10;99.90
4820;DHT22;2424;49.696;6.630;2023-04-01T14:49:15;10.10;99.90
4820;DHT22;2424;49.696;6.630;2023-04-01T14:54:41;10.10;99.90
4820;DHT22;2424;49.696;6.630;2023-04-01T15:00:14;10.00;99.90
4820;DHT22;2424;49.696;6.630;2023-04-01T15:05:44;9.90;99.90
4820;DHT22;2424;49.696;6.630;2023-04-01T15:11:22;9.90;99.90
4820;DHT22;2424;49.696;6.630;2023-04-01T15:16:54;9.90;99.90
4820;DHT22;2424;49.696;6.630;2023-04-01T15:22:39;9.80;99.90
4820;DHT22;2424;49.696;6.630;2023-04-01T15:28:12;9.90;99.90
4820;DHT22;2424;49.696;6.630;2023-04-01T15:34:02;9.90;99.90
4820;DHT22;2424;49.696;6.630;2023-04-01T15:39:35;9.90;99.90
4820;DHT22;2424;49.696;6.630;2023-04-01T15:45:11;9.90;99.90
4820;DHT22;2424;49.696;6.630;2023-04-01T15:50:49;9.90;99.90
4820;DHT22;2424;49.696;6.630;2023-04-01T15:56:23;9.90;99.90
4820;DHT22;2424;49.696;6.630;2023-04-01T16:01:51;9.80;99.90
4820;DHT22;2424;49.696;6.630;2023-04-01T16:13:17;9.90;99.90
4820;DHT22;2424;49.696;6.630;2023-04-01T16:19:10;9.90;99.90
4820;DHT22;2424;49.696;6.630;2023-04-01T16:24:43;9.90;99.90
4820;DHT22;2424;49.696;6.630;2023-04-01T16:30:25;9.90;99.90
4820;DHT22;2424;49.696;6.630;2023-04-01T16:35:54;9.90;99.90
4820;DHT22;2424;49.696;6.630;2023-04-01T16:41:24;9.90;99.90
4820;DHT22;2424;49.696;6.630;2023-04-01T16:46:50;9.90;99.90
4820;DHT22;2424;49.696;6.630;2023-04-01T16:52:15;9.80;99.90
4820;DHT22;2424;49.696;6.630;2023-04-01T16:57:46;9.80;99.90
4820;DHT22;2424;49.696;6.630;2023-04-01T17:03:13;9.70;99.90
4820;DHT22;2424;49.696;6.630;2023-04-01T17:08:57;9.70;99.90
4820;DHT22;2424;49.696;6.630;2023-04-01T17:14:28;9.60;99.90
4820;DHT22;2424;49.696;6.630;2023-04-01T17:20:09;9.50;99.90
4820;DHT22;2424;49.696;6.630;2023-04-01T17:25:56;9.50;99.90
4820;DHT22;2424;49.696;6.630;2023-04-01T17:31:41;9.50;99.90
4820;DHT22;2424;49.696;6.630;2023-04-01T17:37:21;9.50;99.90
4820;DHT22;2424;49.696;6.630;2023-04-01T17:42:53;9.40;99.90
4820;DHT22;2424;49.696;6.630;2023-04-01T17:48:29;9.40;99.90
4820;DHT22;2424;49.696;6.630;2023-04-01T17:54:05;9.40;99.90
4820;DHT22;2424;49.696;6.630;2023-04-01T17:59:36;9.30;99.90
4820;DHT22;2424;49.696;6.630;2023-04-01T18:05:22;9.30;99.90
4820;DHT22;2424;49.696;6.630;2023-04-01T18:10:55;9.30;99.90
4820;DHT22;2424;49.696;6.630;2023-04-01T18:16:29;9.20;99.90
4820;DHT22;2424;49.696;6.630;2023-04-01T18:22:10;9.30;99.90
4820;DHT22;2424;49.696;6.630;2023-04-01T18:27:39;9.20;99.90
4820;DHT22;2424;49.696;6.630;2023-04-01T18:33:08;9.20;99.90
4820;DHT22;2424;49.696;6.630;2023-04-01T18:38:35;9.20;99.90
4820;DHT22;2424;49.696;6.630;2023-04-01T18:44:16;9.20;99.90
4820;DHT22;2424;49.696;6.630;2023-04-01T18:49:45;9.20;99.90
4820;DHT22;2424;49.696;6.630;2023-04-01T18:55:31;9.20;99.90
4820;DHT22;2424;49.696;6.630;2023-04-01T19:01:04;9.20;99.90
4820;DHT22;2424;49.696;6.630;2023-04-01T19:06:30;9.20;99.90
4820;DHT22;2424;49.696;6.630;2023-04-01T19:12:18;9.20;99.90
4820;DHT22;2424;49.696;6.630;2023-04-01T19:17:54;9.20;99.90
4820;DHT22;2424;49.696;6.630;2023-04-01T19:29:23;9.20;99.90
4820;DHT22;2424;49.696;6.630;2023-04-01T19:34:56;9.00;99.90
4820;DHT22;2424;49.696;6.630;2023-04-01T19:40:35;9.00;99.90
4820;DHT22;2424;49.696;6.630;2023-04-01T19:46:10;9.00;99.90
4820;DHT22;2424;49.696;6.630;2023-04-01T19:51:41;9.00;99.90
4820;DHT22;2424;49.696;6.630;2023-04-01T19:57:14;9.10;99.90
4820;DHT22;2424;49.696;6.630;2023-04-01T20:03:04;9.10;99.90
4820;DHT22;2424;49.696;6.630;2023-04-01T20:08:33;9.10;99.90
4820;DHT22;2424;49.696;6.630;2023-04-01T20:14:08;9.10;99.90
4820;DHT22;2424;49.696;6.630;2023-04-01T20:19:38;9.10;99.90
4820;DHT22;2424;49.696;6.630;2023-04-01T20:25:09;9.10;99.90
4820;DHT22;2424;49.696;6.630;2023-04-01T20:31:07;9.10;99.90
4820;DHT22;2424;49.696;6.630;2023-04-01T20:37:00;9.00;99.90
4820;DHT22;2424;49.696;6.630;2023-04-01T20:42:29;9.00;99.90
4820;DHT22;2424;49.696;6.630;2023-04-01T20:48:21;9.00;99.90
4820;DHT22;2424;49.696;6.630;2023-04-01T20:53:51;9.00;99.90
4820;DHT22;2424;49.696;6.630;2023-04-01T20:59:28;9.00;99.90
4820;DHT22;2424;49.696;6.630;2023-04-01T21:05:35;8.90;99.90
4820;DHT22;2424;49.696;6.630;2023-04-01T21:11:10;8.90;99.90
4820;DHT22;2424;49.696;6.630;2023-04-01T21:16:44;8.90;99.90
4820;DHT22;2424;49.696;6.630;2023-04-01T21:22:28;8.90;99.90
4820;DHT22;2424;49.696;6.630;2023-04-01T21:28:18;8.80;99.90
4820;DHT22;2424;49.696;6.630;2023-04-01T21:34:04;8.80;99.90
4820;DHT22;2424;49.696;6.630;2023-04-01T21:39:51;8.80;99.90
4820;DHT22;2424;49.696;6.630;2023-04-01T21:45:37;8.80;99.90
4820;DHT22;2424;49.696;6.630;2023-04-01T21:51:30;8.80;99.90
4820;DHT22;2424;49.696;6.630;2023-04-01T22:09:40;8.80;99.90
4820;DHT22;2424;49.696;6.630;2023-04-01T22:15:14;8.70;99.90
4820;DHT22;2424;49.696;6.630;2023-04-01T22:20:44;8.70;99.90
4820;DHT22;2424;49.696;6.630;2023-04-01T22:26:16;8.50;99.90
4820;DHT22;2424;49.696;6.630;2023-04-01T22:31:46;8.60;99.90
4820;DHT22;2424;49.696;6.630;2023-04-01T22:37:14;8.60;99.90
4820;DHT22;2424;49.696;6.630;2023-04-01T22:42:44;8.60;99.90
4820;DHT22;2424;49.696;6.630;2023-04-01T22:48:10;8.50;99.90
4820;DHT22;2424;49.696;6.630;2023-04-01T22:53:44;8.40;99.90
4820;DHT22;2424;49.696;6.630;2023-04-01T22:59:15;8.40;99.90
4820;DHT22;2424;49.696;6.630;2023-04-01T23:04:42;8.40;99.90
4820;DHT22;2424;49.696;6.630;2023-04-01T23:10:14;8.40;99.90
4820;DHT22;2424;49.696;6.630;2023-04-01T23:15:39;8.40;99.90
4820;DHT22;2424;49.696;6.630;2023-04-01T23:21:12;8.40;99.90
4820;DHT22;2424;49.696;6.630;2023-04-01T23:26:42;8.40;99.90
4820;DHT22;2424;49.696;6.630;2023-04-01T23:32:13;8.50;99.90
4820;DHT22;2424;49.696;6.630;2023-04-01T23:37:36;8.50;99.90
4820;DHT22;2424;49.696;6.630;2023-04-01T23:42:58;8.50;99.90
4820;DHT22;2424;49.696;6.630;2023-04-01T23:48:26;8.50;99.90
4820;DHT22;2424;49.696;6.630;2023-04-01T23:53:57;8.50;99.90
4820;DHT22;2424;49.696;6.630;2023-04-01T23:59:24;8.50;99.90
